createdAt,value
2023-04-17T00:00:34.045Z,19.77
2023-04-17T00:03:01.503Z,18.80
2023-04-17T00:05:29.046Z,19.40
2023-04-17T00:07:57.176Z,19.25
2023-04-17T00:10:23.951Z,19.20
2023-04-17T00:12:51.217Z,19.40
2023-04-17T00:15:18.394Z,20.67
2023-04-17T00:17:45.332Z,20.27
2023-04-17T00:20:12.370Z,20.33
2023-04-17T00:22:39.224Z,20.17
2023-04-17T00:25:06.870Z,20.42
2023-04-17T00:27:34.217Z,21.42
2023-04-17T00:30:01.612Z,20.98
2023-04-17T00:32:28.685Z,20.85
2023-04-17T00:34:55.923Z,20.98
2023-04-17T00:37:22.723Z,21.85
2023-04-17T00:39:50.132Z,20.85
2023-04-17T00:42:17.120Z,23.20
2023-04-17T00:44:43.846Z,21.65
2023-04-17T00:47:10.900Z,20.08
2023-04-17T00:49:38.033Z,20.45
2023-04-17T00:52:05.743Z,19.60
2023-04-17T00:54:35.286Z,21.15
2023-04-17T00:57:03.381Z,20.00
2023-04-17T00:59:32.915Z,18.05
2023-04-17T01:02:00.532Z,19.45
2023-04-17T01:04:27.737Z,19.05
2023-04-17T01:06:54.421Z,18.65
2023-04-17T01:09:23.096Z,19.25
2023-04-17T01:11:49.881Z,17.00
2023-04-17T01:14:17.406Z,18.58
2023-04-17T01:16:44.681Z,17.75
2023-04-17T01:19:14.517Z,18.10
2023-04-17T01:21:48.308Z,18.75
2023-04-17T01:24:15.143Z,18.63
2023-04-17T01:26:43.738Z,17.85
2023-04-17T01:29:17.187Z,17.95
2023-04-17T01:31:43.995Z,17.65
2023-04-17T01:34:10.734Z,16.77
2023-04-17T01:36:37.413Z,17.05
2023-04-17T01:39:04.245Z,17.25
2023-04-17T01:41:30.853Z,16.55
2023-04-17T01:44:00.413Z,17.20
2023-04-17T01:46:27.808Z,17.45
2023-04-17T01:48:56.045Z,18.58
2023-04-17T01:51:22.743Z,18.42
2023-04-17T01:53:49.628Z,18.70
2023-04-17T01:56:16.610Z,18.42
2023-04-17T01:58:54.151Z,18.27
2023-04-17T02:01:23.880Z,19.33
2023-04-17T02:03:57.256Z,17.40
2023-04-17T02:06:24.252Z,19.02
2023-04-17T02:08:51.016Z,19.23
2023-04-17T02:11:17.693Z,17.75
2023-04-17T02:13:44.406Z,17.75
2023-04-17T02:16:12.540Z,17.48
2023-04-17T02:18:40.788Z,19.10
2023-04-17T02:21:07.612Z,18.80
2023-04-17T02:23:34.374Z,17.05
2023-04-17T02:26:01.136Z,19.70
2023-04-17T02:28:27.844Z,16.85
2023-04-17T02:30:54.597Z,18.08
2023-04-17T02:33:21.563Z,18.77
2023-04-17T02:35:48.475Z,19.08
2023-04-17T02:38:15.162Z,19.88
2023-04-17T02:40:41.836Z,20.20
2023-04-17T02:43:08.540Z,19.08
2023-04-17T02:45:35.591Z,20.20
2023-04-17T02:48:02.914Z,19.75
2023-04-17T02:50:29.580Z,20.65
2023-04-17T02:52:56.266Z,20.52
2023-04-17T02:55:23.179Z,20.05
2023-04-17T02:57:49.914Z,19.15
2023-04-17T03:00:16.781Z,18.80
2023-04-17T03:02:43.673Z,20.42
2023-04-17T03:05:11.637Z,19.45
2023-04-17T03:07:38.342Z,18.80
2023-04-17T03:10:06.465Z,19.85
2023-04-17T03:12:33.240Z,19.17
2023-04-17T03:14:59.996Z,19.48
2023-04-17T03:17:26.793Z,21.50
2023-04-17T03:19:53.561Z,20.50
2023-04-17T03:22:20.389Z,20.05
2023-04-17T03:24:47.077Z,20.27
2023-04-17T03:27:13.784Z,20.23
2023-04-17T03:29:40.642Z,19.30
2023-04-17T03:32:07.398Z,19.75
2023-04-17T03:34:34.126Z,21.05
2023-04-17T03:37:00.924Z,20.58
2023-04-17T03:39:27.659Z,18.75
2023-04-17T03:41:54.475Z,20.77
2023-04-17T03:44:21.289Z,20.85
2023-04-17T03:46:48.092Z,20.13
2023-04-17T03:49:14.905Z,21.23
2023-04-17T03:51:42.968Z,21.88
2023-04-17T03:54:09.939Z,19.67
2023-04-17T03:56:36.702Z,19.92
2023-04-17T03:59:04.743Z,21.23
2023-04-17T04:01:32.733Z,20.75
2023-04-17T04:04:00.531Z,20.70
2023-04-17T04:06:29.720Z,22.25
2023-04-17T04:08:57.249Z,21.45
2023-04-17T04:11:23.946Z,22.08
2023-04-17T04:13:50.768Z,22.45
2023-04-17T04:16:17.566Z,22.92
2023-04-17T04:18:44.441Z,23.38
2023-04-17T04:21:12.208Z,21.58
2023-04-17T04:23:41.354Z,22.42
2023-04-17T04:26:08.277Z,21.45
2023-04-17T04:28:35.033Z,21.13
2023-04-17T04:31:02.885Z,21.17
2023-04-17T04:33:30.209Z,22.42
2023-04-17T04:36:01.004Z,20.65
2023-04-17T04:38:32.711Z,21.00
2023-04-17T04:41:05.994Z,22.25
2023-04-17T04:43:33.614Z,22.27
2023-04-17T04:46:00.353Z,22.02
2023-04-17T04:48:27.558Z,21.50
2023-04-17T04:50:57.616Z,22.13
2023-04-17T04:53:25.022Z,22.90
2023-04-17T04:55:51.713Z,22.83
2023-04-17T04:58:18.393Z,22.67
2023-04-17T05:00:45.465Z,23.60
2023-04-17T05:03:12.886Z,22.05
2023-04-17T05:05:41.156Z,22.13
2023-04-17T05:08:07.979Z,21.48
2023-04-17T05:10:35.089Z,21.98
2023-04-17T05:13:01.979Z,21.25
2023-04-17T05:15:28.760Z,20.48
2023-04-17T05:17:55.485Z,22.83
2023-04-17T05:20:22.396Z,21.63
2023-04-17T05:22:49.560Z,22.80
2023-04-17T05:25:16.527Z,21.25
2023-04-17T05:27:43.368Z,23.38
2023-04-17T05:30:10.645Z,21.88
2023-04-17T05:32:37.393Z,21.35
2023-04-17T05:35:05.593Z,22.05
2023-04-17T05:37:41.762Z,22.35
2023-04-17T05:40:09.391Z,22.83
2023-04-17T05:42:36.436Z,20.95
2023-04-17T05:45:03.780Z,21.42
2023-04-17T05:47:30.616Z,21.63
2023-04-17T05:49:58.496Z,22.55
2023-04-17T05:52:25.557Z,21.73
2023-04-17T05:54:52.324Z,22.88
2023-04-17T05:57:19.834Z,22.80
2023-04-17T05:59:46.940Z,22.00
2023-04-17T06:02:13.800Z,22.90
2023-04-17T06:04:41.585Z,23.65
2023-04-17T06:07:09.802Z,21.40
2023-04-17T06:09:37.054Z,23.73
2023-04-17T06:12:05.058Z,23.73
2023-04-17T06:14:31.860Z,22.73
2023-04-17T06:16:58.666Z,23.02
2023-04-17T06:19:25.527Z,22.98
2023-04-17T06:21:52.310Z,21.90
2023-04-17T06:24:19.350Z,20.70
2023-04-17T06:26:46.065Z,21.60
2023-04-17T06:29:13.939Z,21.02
2023-04-17T06:31:40.810Z,21.83
2023-04-17T06:34:07.681Z,21.63
2023-04-17T06:36:34.624Z,22.63
2023-04-17T06:39:01.336Z,21.25
2023-04-17T06:41:28.073Z,20.90
2023-04-17T06:43:54.869Z,21.23
2023-04-17T06:46:24.733Z,21.90
2023-04-17T06:48:52.381Z,20.92
2023-04-17T06:51:21.013Z,20.67
2023-04-17T06:53:48.285Z,20.60
2023-04-17T06:56:14.944Z,20.33
2023-04-17T06:58:44.389Z,20.25
2023-04-17T07:01:12.509Z,19.60
2023-04-17T07:03:40.462Z,19.73
2023-04-17T07:06:07.954Z,18.90
2023-04-17T07:08:35.094Z,19.80
2023-04-17T07:11:02.387Z,19.95
2023-04-17T07:13:31.383Z,19.52
2023-04-17T07:15:59.288Z,20.02
2023-04-17T07:18:26.988Z,19.52
2023-04-17T07:20:53.717Z,19.23
2023-04-17T07:23:20.531Z,20.02
2023-04-17T07:25:47.278Z,18.25
2023-04-17T07:28:14.577Z,19.65
2023-04-17T07:30:42.699Z,17.73
2023-04-17T07:33:10.222Z,18.45
2023-04-17T07:35:36.982Z,17.77
2023-04-17T07:38:04.365Z,17.58
2023-04-17T07:40:32.172Z,18.40
2023-04-17T07:42:58.965Z,17.05
2023-04-17T07:45:29.926Z,16.75
2023-04-17T07:47:56.669Z,16.35
2023-04-17T07:50:23.752Z,16.73
2023-04-17T07:52:50.546Z,16.35
2023-04-17T07:55:17.278Z,15.40
2023-04-17T07:57:46.639Z,17.92
2023-04-17T08:00:14.609Z,15.93
2023-04-17T08:02:42.379Z,15.93
2023-04-17T08:05:10.206Z,13.15
2023-04-17T08:07:37.373Z,12.68
2023-04-17T08:10:05.163Z,11.95
2023-04-17T08:12:32.076Z,12.23
2023-04-17T08:14:58.865Z,11.00
2023-04-17T08:17:26.185Z,12.20
2023-04-17T08:19:57.669Z,10.55
2023-04-17T08:22:25.939Z,10.52
2023-04-17T08:24:57.825Z,10.40
2023-04-17T08:27:25.576Z,10.43
2023-04-17T08:29:53.727Z,9.90
2023-04-17T08:32:21.410Z,9.75
2023-04-17T08:34:48.270Z,10.98
2023-04-17T08:37:14.928Z,10.48
2023-04-17T08:39:41.720Z,9.75
2023-04-17T08:42:17.733Z,9.50
2023-04-17T08:44:45.923Z,9.98
2023-04-17T08:47:13.591Z,11.65
2023-04-17T08:49:43.486Z,10.60
2023-04-17T08:52:10.879Z,10.27
2023-04-17T08:54:38.836Z,12.00
2023-04-17T08:57:06.232Z,11.15
2023-04-17T08:59:33.270Z,12.40
2023-04-17T09:02:07.700Z,10.73
2023-04-17T09:04:43.726Z,11.25
2023-04-17T09:07:12.341Z,12.25
2023-04-17T09:09:49.877Z,10.77
2023-04-17T09:12:17.168Z,10.63
2023-04-17T09:14:44.478Z,10.95
2023-04-17T09:17:11.249Z,11.07
2023-04-17T09:19:38.158Z,10.25
2023-04-17T09:22:24.222Z,10.13
2023-04-17T09:24:51.331Z,9.77
2023-04-17T09:27:26.702Z,9.48
2023-04-17T09:30:04.759Z,8.55
2023-04-17T09:32:33.166Z,9.07
2023-04-17T09:35:02.678Z,9.07
2023-04-17T09:37:50.618Z,8.00
2023-04-17T09:40:22.105Z,7.78
2023-04-17T09:43:02.098Z,7.45
2023-04-17T09:45:35.798Z,7.82
2023-04-17T09:48:10.844Z,8.13
2023-04-17T09:50:38.821Z,7.93
2023-04-17T09:53:07.521Z,8.10
2023-04-17T09:55:36.897Z,8.80
2023-04-17T09:58:05.331Z,9.48
2023-04-17T10:00:32.414Z,9.18
2023-04-17T10:02:59.773Z,8.43
2023-04-17T10:05:29.146Z,7.50
2023-04-17T10:07:56.653Z,6.80
2023-04-17T10:10:25.451Z,7.45
2023-04-17T10:12:55.860Z,7.28
2023-04-17T10:15:24.049Z,7.57
2023-04-17T10:17:50.889Z,9.27
2023-04-17T10:20:17.683Z,7.60
2023-04-17T10:22:45.349Z,8.27
2023-04-17T10:25:12.766Z,7.70
2023-04-17T10:27:42.393Z,7.57
2023-04-17T10:30:12.926Z,7.07
2023-04-17T10:32:42.365Z,8.60
2023-04-17T10:35:18.479Z,7.65
2023-04-17T10:37:48.182Z,7.22
2023-04-17T10:40:27.189Z,6.78
2023-04-17T10:43:12.979Z,6.47
2023-04-17T10:46:09.317Z,7.28
2023-04-17T10:48:46.181Z,6.70
2023-04-17T10:51:22.062Z,6.35
2023-04-17T10:53:59.319Z,5.85
2023-04-17T10:56:37.240Z,7.20
2023-04-17T10:59:17.822Z,6.38
2023-04-17T11:01:47.723Z,6.70
2023-04-17T11:04:24.431Z,6.22
2023-04-17T11:06:52.792Z,6.63
2023-04-17T11:09:21.992Z,7.10
2023-04-17T11:11:48.828Z,6.05
2023-04-17T11:14:17.655Z,6.57
2023-04-17T11:16:46.198Z,6.43
2023-04-17T11:19:21.721Z,6.32
2023-04-17T11:21:49.820Z,6.43
2023-04-17T11:24:24.253Z,6.00
2023-04-17T11:26:51.180Z,5.68
2023-04-17T11:29:19.669Z,5.05
2023-04-17T11:31:47.128Z,5.40
2023-04-17T11:34:15.652Z,4.97
2023-04-17T11:36:57.232Z,4.38
2023-04-17T11:39:26.790Z,5.10
2023-04-17T11:41:54.007Z,5.20
2023-04-17T11:44:21.193Z,4.55
2023-04-17T11:46:51.896Z,4.60
2023-04-17T11:49:38.057Z,4.78
2023-04-17T11:52:08.094Z,4.70
2023-04-17T11:54:40.111Z,3.70
2023-04-17T11:57:12.038Z,3.65
2023-04-17T11:59:42.019Z,3.28
2023-04-17T12:02:10.057Z,3.33
2023-04-17T12:04:37.864Z,3.92
2023-04-17T12:07:06.264Z,4.05
2023-04-17T12:09:34.088Z,3.75
2023-04-17T12:12:03.779Z,3.65
2023-04-17T12:14:31.446Z,4.28
2023-04-17T12:16:58.623Z,3.65
2023-04-17T12:19:29.478Z,3.83
2023-04-17T12:21:58.672Z,3.97
2023-04-17T12:24:25.548Z,4.07
2023-04-17T12:26:52.500Z,4.50
2023-04-17T12:29:26.556Z,4.40
2023-04-17T12:31:59.664Z,4.88
2023-04-17T12:34:27.962Z,4.40
2023-04-17T12:36:54.897Z,4.30
2023-04-17T12:39:21.785Z,4.40
2023-04-17T12:41:49.268Z,4.80
2023-04-17T12:44:17.815Z,3.85
2023-04-17T12:46:45.210Z,3.83
2023-04-17T12:49:12.159Z,3.47
2023-04-17T12:51:39.341Z,3.90
2023-04-17T12:54:06.688Z,3.20
2023-04-17T12:56:33.535Z,3.63
2023-04-17T12:59:02.840Z,3.67
2023-04-17T13:01:30.547Z,3.63
2023-04-17T13:03:58.240Z,4.05
2023-04-17T13:06:25.690Z,4.10
2023-04-17T13:08:52.436Z,3.47
2023-04-17T13:11:19.192Z,3.47
2023-04-17T13:13:46.113Z,3.38
2023-04-17T13:16:12.875Z,3.63
2023-04-17T13:18:42.816Z,3.75
2023-04-17T13:21:10.080Z,3.90
2023-04-17T13:23:36.855Z,4.20
2023-04-17T13:26:03.743Z,4.25
2023-04-17T13:28:30.589Z,4.20
2023-04-17T13:31:03.113Z,4.03
2023-04-17T13:33:37.425Z,4.38
2023-04-17T13:36:07.821Z,3.55
2023-04-17T13:38:37.752Z,4.03
2023-04-17T13:41:09.259Z,4.38
2023-04-17T13:43:44.918Z,4.22
2023-04-17T13:46:16.100Z,3.17
2023-04-17T13:48:46.481Z,3.63
2023-04-17T13:51:16.027Z,3.53
2023-04-17T13:53:49.444Z,3.92
2023-04-17T13:56:16.863Z,4.13
2023-04-17T13:58:50.146Z,4.28
2023-04-17T14:01:20.231Z,4.18
2023-04-17T14:03:58.151Z,4.28
2023-04-17T14:06:31.210Z,5.15
2023-04-17T14:09:02.888Z,5.03
2023-04-17T14:11:29.624Z,5.00
2023-04-17T14:13:56.352Z,5.80
2023-04-17T14:16:25.664Z,5.40
2023-04-17T14:18:57.884Z,7.32
2023-04-17T14:21:37.452Z,6.72
2023-04-17T14:24:16.089Z,6.20
2023-04-17T14:26:46.798Z,6.40
2023-04-17T14:29:14.544Z,6.13
2023-04-17T14:31:43.050Z,6.18
2023-04-17T14:34:16.135Z,6.18
2023-04-17T14:36:43.879Z,6.93
2023-04-17T14:39:14.053Z,6.45
2023-04-17T14:41:41.031Z,6.15
2023-04-17T14:44:07.862Z,5.13
2023-04-17T14:46:34.637Z,4.65
2023-04-17T14:49:01.486Z,4.75
2023-04-17T14:51:28.458Z,5.03
2023-04-17T14:53:55.751Z,4.50
2023-04-17T14:56:22.704Z,4.45
2023-04-17T14:58:50.097Z,4.40
2023-04-17T15:01:16.999Z,5.18
2023-04-17T15:03:46.690Z,6.65
2023-04-17T15:06:15.240Z,5.10
2023-04-17T15:08:42.130Z,4.97
2023-04-17T15:11:09.004Z,4.78
2023-04-17T15:13:35.992Z,4.45
2023-04-17T15:16:03.395Z,4.70
2023-04-17T15:18:30.968Z,4.53
2023-04-17T15:20:57.916Z,4.30
2023-04-17T15:23:25.829Z,4.45
2023-04-17T15:25:57.419Z,4.53
2023-04-17T15:28:24.962Z,5.32
2023-04-17T15:30:51.768Z,5.55
2023-04-17T15:33:18.455Z,5.15
2023-04-17T15:35:45.246Z,5.18
2023-04-17T15:38:12.121Z,5.25
2023-04-17T15:40:38.953Z,5.13
2023-04-17T15:43:05.801Z,5.18
2023-04-17T15:45:32.465Z,6.10
2023-04-17T15:48:00.949Z,5.55
2023-04-17T15:50:27.905Z,5.38
2023-04-17T15:52:54.608Z,5.05
2023-04-17T15:55:21.422Z,5.32
2023-04-17T15:57:48.086Z,4.95
2023-04-17T16:00:15.198Z,5.10
2023-04-17T16:02:41.998Z,4.65
2023-04-17T16:05:09.109Z,4.82
2023-04-17T16:07:36.035Z,4.38
2023-04-17T16:10:02.915Z,3.95
2023-04-17T16:12:29.639Z,4.10
2023-04-17T16:14:56.534Z,3.80
2023-04-17T16:17:23.257Z,4.15
2023-04-17T16:19:50.843Z,3.80
2023-04-17T16:22:19.673Z,4.22
2023-04-17T16:24:46.663Z,4.22
2023-04-17T16:27:13.332Z,3.92
2023-04-17T16:29:40.126Z,3.90
2023-04-17T16:32:06.814Z,4.43
2023-04-17T16:34:33.521Z,4.10
2023-04-17T16:37:00.308Z,4.30
2023-04-17T16:39:27.093Z,4.70
2023-04-17T16:41:53.947Z,4.65
2023-04-17T16:44:21.072Z,3.83
2023-04-17T16:49:17.647Z,4.60
2023-04-17T16:51:45.022Z,4.78
2023-04-17T16:54:12.132Z,5.20
2023-04-17T16:56:39.202Z,5.78
2023-04-17T16:59:05.883Z,5.35
2023-04-17T17:01:33.070Z,6.53
2023-04-17T17:03:59.946Z,5.88
2023-04-17T17:06:27.254Z,5.53
2023-04-17T17:08:55.291Z,5.55
2023-04-17T17:11:22.291Z,4.80
2023-04-17T17:13:49.886Z,5.40
2023-04-17T17:16:18.692Z,4.55
2023-04-17T17:18:46.087Z,4.95
2023-04-17T17:21:13.435Z,5.07
2023-04-17T17:23:40.751Z,4.70
2023-04-17T17:26:10.218Z,4.78
2023-04-17T17:28:37.139Z,4.93
2023-04-17T17:31:08.236Z,4.90
2023-04-17T17:33:36.217Z,4.93
2023-04-17T17:36:03.302Z,4.80
2023-04-17T17:38:32.500Z,4.85
2023-04-17T17:41:00.012Z,4.32
2023-04-17T17:43:29.911Z,4.88
2023-04-17T17:45:56.607Z,4.10
2023-04-17T17:48:23.384Z,4.30
2023-04-17T17:50:54.499Z,4.10
2023-04-17T17:53:26.025Z,3.65
2023-04-17T17:55:55.556Z,4.03
2023-04-17T17:58:23.070Z,3.42
2023-04-17T18:00:50.686Z,3.72
2023-04-17T18:03:17.834Z,3.80
2023-04-17T18:05:46.354Z,2.85
2023-04-17T18:08:13.881Z,3.40
2023-04-17T18:10:40.607Z,2.78
2023-04-17T18:13:07.304Z,3.22
2023-04-17T18:15:34.077Z,3.80
2023-04-17T18:18:00.867Z,3.63
2023-04-17T18:20:27.572Z,3.70
2023-04-17T18:22:54.284Z,3.75
2023-04-17T18:25:21.099Z,4.05
2023-04-17T18:27:47.815Z,4.10
2023-04-17T18:30:15.135Z,5.15
2023-04-17T18:32:41.895Z,3.85
2023-04-17T18:35:08.952Z,3.88
2023-04-17T18:37:35.822Z,4.05
2023-04-17T18:40:02.652Z,3.33
2023-04-17T18:42:30.759Z,4.25
2023-04-17T18:44:57.520Z,3.53
2023-04-17T18:47:24.249Z,2.78
2023-04-17T18:49:54.169Z,3.60
2023-04-17T18:52:21.192Z,3.80
2023-04-17T18:54:48.110Z,3.60
2023-04-17T18:57:14.837Z,4.05
2023-04-17T18:59:43.506Z,4.22
2023-04-17T19:02:10.538Z,3.67
2023-04-17T19:04:40.577Z,6.25
2023-04-17T19:07:07.799Z,5.22
2023-04-17T19:09:35.126Z,4.82
2023-04-17T19:12:02.899Z,4.28
2023-04-17T19:14:32.462Z,3.92
2023-04-17T19:16:59.310Z,4.15
2023-04-17T19:19:26.100Z,3.70
2023-04-17T19:21:52.873Z,3.92
2023-04-17T19:24:19.717Z,3.38
2023-04-17T19:26:46.794Z,4.13
2023-04-17T19:29:26.309Z,3.53
2023-04-17T19:31:52.991Z,3.67
2023-04-17T19:34:19.727Z,3.50
2023-04-17T19:36:46.529Z,3.78
2023-04-17T19:39:13.635Z,3.80
2023-04-17T19:41:42.062Z,3.83
2023-04-17T19:44:09.655Z,3.63
2023-04-17T19:46:36.415Z,3.72
2023-04-17T19:49:03.622Z,4.03
2023-04-17T19:51:31.368Z,4.18
2023-04-17T19:53:58.048Z,4.20
2023-04-17T19:56:24.755Z,3.75
2023-04-17T19:58:51.580Z,3.85
2023-04-17T20:01:18.794Z,4.05
2023-04-17T20:03:45.911Z,4.03
2023-04-17T20:06:13.867Z,3.67
2023-04-17T20:08:40.832Z,3.95
2023-04-17T20:11:07.799Z,3.40
2023-04-17T20:13:34.524Z,4.15
2023-04-17T20:16:01.541Z,4.22
2023-04-17T20:18:28.705Z,3.70
2023-04-17T20:20:55.721Z,4.00
2023-04-17T20:23:22.463Z,4.32
2023-04-17T20:25:49.144Z,3.63
2023-04-17T20:28:16.033Z,3.97
2023-04-17T20:30:42.792Z,4.20
2023-04-17T20:33:09.659Z,3.88
2023-04-17T20:35:36.451Z,4.00
2023-04-17T20:38:03.535Z,3.92
2023-04-17T20:40:30.318Z,3.50
2023-04-17T20:42:57.140Z,3.72
2023-04-17T20:45:23.777Z,3.70
2023-04-17T20:50:20.699Z,3.60
2023-04-17T20:52:47.492Z,3.70
2023-04-17T20:55:14.331Z,4.10
2023-04-17T20:57:41.230Z,4.40
2023-04-17T21:00:08.606Z,4.20
2023-04-17T21:02:35.410Z,3.20
2023-04-17T21:05:02.174Z,2.60
2023-04-17T21:07:30.464Z,3.17
2023-04-17T21:09:57.236Z,3.00
2023-04-17T21:12:25.345Z,2.85
2023-04-17T21:14:52.063Z,3.17
2023-04-17T21:17:18.791Z,3.70
2023-04-17T21:19:46.445Z,3.42
2023-04-17T21:22:13.190Z,4.50
2023-04-17T21:24:40.104Z,7.45
2023-04-17T21:27:06.867Z,4.35
2023-04-17T21:29:33.543Z,4.28
2023-04-17T21:32:00.463Z,4.38
2023-04-17T21:34:27.308Z,3.47
2023-04-17T21:36:54.470Z,3.78
2023-04-17T21:39:21.781Z,3.10
2023-04-17T21:41:48.663Z,3.47
2023-04-17T21:44:15.836Z,3.47
2023-04-17T21:46:46.277Z,3.13
2023-04-17T21:49:13.284Z,3.13
2023-04-17T21:51:40.947Z,3.40
2023-04-17T21:54:09.230Z,3.22
2023-04-17T21:56:36.477Z,3.25
2023-04-17T21:59:03.578Z,3.17
2023-04-17T22:01:30.382Z,3.88
2023-04-17T22:03:57.117Z,3.70
2023-04-17T22:06:24.201Z,3.42
2023-04-17T22:08:50.922Z,3.78
2023-04-17T22:11:17.767Z,3.80
2023-04-17T22:13:45.011Z,3.67
2023-04-17T22:16:11.768Z,3.78
2023-04-17T22:18:38.437Z,3.58
2023-04-17T22:21:05.883Z,3.47
2023-04-17T22:23:32.657Z,4.22
2023-04-17T22:25:59.488Z,4.05
2023-04-17T22:28:29.863Z,4.47
2023-04-17T22:30:57.650Z,9.65
2023-04-17T22:33:24.457Z,7.03
2023-04-17T22:35:51.090Z,6.00
2023-04-17T22:38:20.048Z,5.35
2023-04-17T22:40:47.149Z,5.82
2023-04-17T22:43:14.300Z,4.95
2023-04-17T22:45:41.005Z,5.00
2023-04-17T22:48:07.731Z,4.50
2023-04-17T22:50:34.771Z,4.53
2023-04-17T22:53:01.549Z,4.65
2023-04-17T22:55:28.241Z,5.22
2023-04-17T22:57:54.938Z,4.93
2023-04-17T23:00:21.752Z,4.57
2023-04-17T23:02:48.497Z,5.10
2023-04-17T23:05:15.347Z,4.38
2023-04-17T23:07:42.145Z,5.00
2023-04-17T23:10:09.624Z,5.25
2023-04-17T23:12:36.308Z,5.22
2023-04-17T23:15:02.925Z,5.03
2023-04-17T23:17:29.799Z,5.80
2023-04-17T23:19:56.863Z,5.60
2023-04-17T23:22:23.758Z,5.18
2023-04-17T23:24:50.518Z,5.22
2023-04-17T23:27:17.338Z,6.05
2023-04-17T23:29:44.023Z,5.72
2023-04-17T23:32:10.866Z,5.68
2023-04-17T23:34:37.932Z,6.10
2023-04-17T23:37:04.771Z,5.78
2023-04-17T23:39:31.672Z,6.10
2023-04-17T23:42:00.439Z,6.00
2023-04-17T23:44:27.278Z,5.28
2023-04-17T23:46:54.123Z,5.82
2023-04-17T23:49:21.085Z,6.38
2023-04-17T23:51:47.782Z,5.93
2023-04-17T23:54:15.292Z,6.53
2023-04-17T23:56:43.600Z,6.50
2023-04-17T23:59:10.388Z,6.27
